createdAt,value
2022-09-24T00:00:02.622Z,97553.50
2022-09-24T00:04:07.706Z,97555.13
2022-09-24T00:08:12.770Z,97549.09
2022-09-24T00:12:15.875Z,97542.41
2022-09-24T00:16:21.052Z,97553.81
2022-09-24T00:20:24.195Z,97546.00
2022-09-24T00:24:47.333Z,97546.00
2022-09-24T00:28:50.799Z,97546.50
2022-09-24T00:32:54.639Z,97537.88
2022-09-24T00:36:57.917Z,97538.03
2022-09-24T00:41:04.888Z,97532.00
2022-09-24T00:45:11.323Z,97513.94
2022-09-24T00:49:16.762Z,97515.09
2022-09-24T00:53:24.377Z,97516.16
2022-09-24T00:57:29.360Z,97514.88
2022-09-24T01:01:33.023Z,97505.91
2022-09-24T01:05:37.383Z,97508.38
2022-09-24T01:09:40.970Z,97507.69
2022-09-24T01:14:02.669Z,97507.84
2022-09-24T01:18:11.116Z,97500.38
2022-09-24T01:22:28.474Z,97501.50
2022-09-24T01:26:49.227Z,97505.09
2022-09-24T01:31:00.737Z,97494.69
2022-09-24T01:35:09.656Z,97481.81
2022-09-24T01:39:15.492Z,97473.34
2022-09-24T01:43:23.091Z,97483.75
2022-09-24T01:47:34.910Z,97479.53
2022-09-24T01:51:44.604Z,97472.88
2022-09-24T01:55:52.922Z,97477.72
2022-09-24T02:00:00.741Z,97477.88
2022-09-24T02:04:12.433Z,97473.81
2022-09-24T02:08:20.080Z,97473.31
2022-09-24T02:12:30.150Z,97470.25
2022-09-24T02:16:38.078Z,97465.19
2022-09-24T02:20:45.105Z,97464.53
2022-09-24T02:24:51.997Z,97463.06
2022-09-24T02:28:55.209Z,97458.34
2022-09-24T02:32:59.419Z,97466.44
2022-09-24T02:37:07.227Z,97454.44
2022-09-24T02:41:11.092Z,97453.59
2022-09-24T02:45:14.658Z,97461.56
2022-09-24T02:49:18.833Z,97452.97
2022-09-24T02:53:23.296Z,97453.91
2022-09-24T02:57:26.992Z,97451.16
2022-09-24T03:01:30.178Z,97441.91
2022-09-24T03:05:33.499Z,97452.28
2022-09-24T03:09:37.822Z,97441.06
2022-09-24T03:13:41.910Z,97437.84
2022-09-24T03:17:44.902Z,97430.97
2022-09-24T03:21:48.339Z,97430.34
2022-09-24T03:25:52.745Z,97431.31
2022-09-24T03:30:13.724Z,97422.84
2022-09-24T03:34:16.784Z,97421.25
2022-09-24T03:42:30.856Z,97428.06
2022-09-24T03:46:34.251Z,97420.25
2022-09-24T03:50:38.077Z,97417.66
2022-09-24T03:54:41.556Z,97408.88
2022-09-24T03:58:47.787Z,97414.06
2022-09-24T04:02:51.770Z,97398.47
2022-09-24T04:06:54.881Z,97408.88
2022-09-24T04:10:58.383Z,97408.25
2022-09-24T04:15:03.252Z,97395.38
2022-09-24T04:19:08.689Z,97383.84
2022-09-24T04:23:13.271Z,97384.47
2022-09-24T04:27:16.326Z,97386.09
2022-09-24T04:31:21.717Z,97388.66
2022-09-24T04:35:25.188Z,97400.81
2022-09-24T04:39:28.843Z,97404.84
2022-09-24T04:43:32.460Z,97403.84
2022-09-24T04:47:39.593Z,97400.25
2022-09-24T04:51:42.854Z,97401.03
2022-09-24T04:55:46.332Z,97403.28
2022-09-24T04:59:49.671Z,97403.59
2022-09-24T05:03:54.478Z,97399.34
2022-09-24T05:07:59.167Z,97401.16
2022-09-24T05:12:02.682Z,97397.41
2022-09-24T05:16:06.668Z,97394.34
2022-09-24T05:20:11.612Z,97392.75
2022-09-24T05:24:15.274Z,97401.25
2022-09-24T05:28:18.671Z,97396.75
2022-09-24T05:32:22.346Z,97393.22
2022-09-24T05:36:27.450Z,97398.09
2022-09-24T05:40:48.743Z,97395.19
2022-09-24T05:44:52.733Z,97393.28
2022-09-24T05:48:56.092Z,97402.72
2022-09-24T05:53:02.736Z,97398.19
2022-09-24T05:57:06.236Z,97398.53
2022-09-24T06:01:09.988Z,97397.06
2022-09-24T06:05:13.779Z,97396.25
2022-09-24T06:09:18.705Z,97389.44
2022-09-24T06:13:22.671Z,97393.19
2022-09-24T06:17:27.742Z,97383.84
2022-09-24T06:21:30.919Z,97398.16
2022-09-24T06:25:35.808Z,97401.22
2022-09-24T06:29:39.272Z,97393.38
2022-09-24T06:33:42.689Z,97400.84
2022-09-24T06:37:46.193Z,97394.25
2022-09-24T06:41:51.646Z,97391.41
2022-09-24T06:45:57.299Z,97390.66
2022-09-24T06:50:00.265Z,97381.06
2022-09-24T06:54:03.856Z,97374.69
2022-09-24T06:58:10.582Z,97369.91
2022-09-24T07:02:14.159Z,97375.59
2022-09-24T07:06:17.348Z,97379.41
2022-09-24T07:10:21.578Z,97381.81
2022-09-24T07:14:26.020Z,97377.00
2022-09-24T07:18:29.523Z,97379.47
2022-09-24T07:22:32.954Z,97369.41
2022-09-24T07:26:36.035Z,97379.03
2022-09-24T07:30:41.699Z,97388.03
2022-09-24T07:34:46.564Z,97405.72
2022-09-24T07:38:49.586Z,97417.53
2022-09-24T07:42:53.163Z,97413.78
2022-09-24T07:46:59.076Z,97415.91
2022-09-24T07:51:02.728Z,97410.97
2022-09-24T07:55:06.649Z,97402.97
2022-09-24T07:59:11.835Z,97407.00
2022-09-24T08:03:17.460Z,97409.13
2022-09-24T08:07:20.966Z,97408.69
2022-09-24T08:11:24.596Z,97405.38
2022-09-24T08:15:27.684Z,97402.97
2022-09-24T08:19:33.722Z,97404.13
2022-09-24T08:23:38.356Z,97408.09
2022-09-24T08:27:41.396Z,97406.38
2022-09-24T08:31:45.069Z,97392.50
2022-09-24T08:35:50.359Z,97397.44
2022-09-24T08:39:53.578Z,97398.38
2022-09-24T08:44:04.788Z,97395.16
2022-09-24T08:48:14.366Z,97389.75
2022-09-24T08:52:31.593Z,97393.72
2022-09-24T08:56:37.962Z,97391.34
2022-09-24T09:00:47.529Z,97386.84
2022-09-24T09:05:01.984Z,97370.09
2022-09-24T09:09:14.075Z,97375.84
2022-09-24T09:13:23.136Z,97378.56
2022-09-24T09:17:35.995Z,97377.09
2022-09-24T09:21:42.442Z,97372.34
2022-09-24T09:25:53.726Z,97374.03
2022-09-24T09:30:00.356Z,97374.03
2022-09-24T09:34:31.359Z,97369.63
2022-09-24T09:42:46.365Z,97363.06
2022-09-24T09:46:55.785Z,97349.25
2022-09-24T09:51:05.109Z,97352.44
2022-09-24T09:55:09.141Z,97354.06
2022-09-24T09:59:23.530Z,97353.59
2022-09-24T10:03:34.067Z,97351.22
2022-09-24T10:07:46.544Z,97350.84
2022-09-24T10:11:50.042Z,97344.09
2022-09-24T10:15:57.544Z,97344.31
2022-09-24T10:20:03.977Z,97343.97
2022-09-24T10:24:14.104Z,97346.28
2022-09-24T10:28:38.722Z,97331.63
2022-09-24T10:32:43.431Z,97328.31
2022-09-24T10:36:53.681Z,97331.75
2022-09-24T10:40:57.407Z,97332.78
2022-09-24T10:45:02.919Z,97333.75
2022-09-24T10:49:19.002Z,97338.75
2022-09-24T10:53:31.749Z,97332.41
2022-09-24T10:57:39.742Z,97341.53
2022-09-24T11:01:50.561Z,97340.09
2022-09-24T11:06:03.009Z,97334.78
2022-09-24T11:10:19.406Z,97332.13
2022-09-24T11:14:49.046Z,97325.28
2022-09-24T11:18:59.018Z,97321.63
2022-09-24T11:23:29.029Z,97319.56
2022-09-24T11:27:56.218Z,97312.97
2022-09-24T11:32:12.076Z,97311.94
2022-09-24T11:36:29.941Z,97310.09
2022-09-24T11:40:52.603Z,97310.91
2022-09-24T11:45:21.410Z,97313.59
2022-09-24T11:49:44.798Z,97310.34
2022-09-24T11:53:55.878Z,97306.28
2022-09-24T11:58:13.862Z,97307.22
2022-09-24T12:02:25.805Z,97302.00
2022-09-24T12:06:33.640Z,97313.34
2022-09-24T12:10:42.327Z,97310.56
2022-09-24T12:14:52.755Z,97299.81
2022-09-24T12:19:01.500Z,97300.22
2022-09-24T12:23:11.474Z,97305.72
2022-09-24T12:27:18.206Z,97292.69
2022-09-24T12:31:47.880Z,97286.38
2022-09-24T12:36:06.439Z,97288.03
2022-09-24T12:40:26.492Z,97281.19
2022-09-24T12:44:39.302Z,97283.41
2022-09-24T12:48:46.232Z,97274.13
2022-09-24T12:52:50.303Z,97269.38
2022-09-24T12:56:53.505Z,97267.03
2022-09-24T13:01:08.633Z,97279.31
2022-09-24T13:05:29.398Z,97264.50
2022-09-24T13:09:38.172Z,97270.94
2022-09-24T13:13:43.620Z,97266.16
2022-09-24T13:17:48.553Z,97269.94
2022-09-24T13:21:57.666Z,97270.50
2022-09-24T13:26:05.413Z,97271.22
2022-09-24T13:30:19.872Z,97261.06
2022-09-24T13:34:27.881Z,97248.56
2022-09-24T13:38:36.437Z,97251.75
2022-09-24T13:42:49.580Z,97253.66
2022-09-24T13:46:58.916Z,97243.97
2022-09-24T13:51:04.878Z,97243.25
2022-09-24T13:55:19.230Z,97248.94
2022-09-24T13:59:22.629Z,97253.78
2022-09-24T14:03:28.109Z,97239.47
2022-09-24T14:07:31.910Z,97254.59
2022-09-24T14:11:36.938Z,97254.22
2022-09-24T14:15:40.204Z,97246.56
2022-09-24T14:19:43.836Z,97252.25
2022-09-24T14:23:53.145Z,97255.59
2022-09-24T14:28:00.622Z,97266.16
2022-09-24T14:32:06.570Z,97255.47
2022-09-24T14:36:13.900Z,97263.13
2022-09-24T14:40:19.911Z,97266.25
2022-09-24T14:44:27.643Z,97261.66
2022-09-24T14:48:35.015Z,97266.13
2022-09-24T14:52:40.771Z,97263.38
2022-09-24T14:56:44.427Z,97251.84
2022-09-24T15:00:51.474Z,97260.66
2022-09-24T15:05:01.902Z,97260.69
2022-09-24T15:09:21.467Z,97259.91
2022-09-24T15:13:34.543Z,97258.78
2022-09-24T15:17:39.255Z,97265.69
2022-09-24T15:21:42.908Z,97260.59
2022-09-24T15:25:46.072Z,97261.38
2022-09-24T15:29:49.676Z,97259.25
2022-09-24T15:33:54.995Z,97258.47
2022-09-24T15:38:00.327Z,97251.00
2022-09-24T15:47:36.587Z,97214.19
2022-09-24T15:51:41.456Z,97208.81
2022-09-24T15:55:45.295Z,97244.38
2022-09-24T15:59:48.241Z,97210.09
2022-09-24T16:03:54.196Z,97258.03
2022-09-24T16:07:59.494Z,97243.88
2022-09-24T16:12:03.496Z,97237.75
2022-09-24T16:16:08.799Z,97233.50
2022-09-24T16:20:12.552Z,97242.06
2022-09-24T16:24:17.529Z,97235.59
2022-09-24T16:28:21.046Z,97251.06
2022-09-24T16:32:24.166Z,97248.00
2022-09-24T16:36:27.863Z,97252.72
2022-09-24T16:40:33.197Z,97269.31
2022-09-24T16:44:36.885Z,97269.06
2022-09-24T16:48:40.792Z,97272.03
2022-09-24T16:52:45.544Z,97266.94
2022-09-24T16:56:52.423Z,97267.06
2022-09-24T17:00:55.896Z,97268.16
2022-09-24T17:05:01.510Z,97269.09
2022-09-24T17:09:23.386Z,97270.56
2022-09-24T17:13:27.777Z,97269.66
2022-09-24T17:17:31.206Z,97270.38
2022-09-24T17:21:40.232Z,97267.97
2022-09-24T17:25:45.807Z,97270.88
2022-09-24T17:30:27.831Z,97276.38
2022-09-24T17:34:32.938Z,97272.19
2022-09-24T17:38:38.933Z,97274.84
2022-09-24T17:42:46.352Z,97284.00
2022-09-24T17:46:56.128Z,97289.72
2022-09-24T17:51:00.880Z,97294.59
2022-09-24T17:55:06.572Z,97292.78
2022-09-24T17:59:12.266Z,97290.59
2022-09-24T18:03:17.966Z,97299.53
2022-09-24T18:07:21.107Z,97301.56
2022-09-24T18:11:26.770Z,97307.66
2022-09-24T18:15:31.266Z,97307.66
2022-09-24T18:19:36.882Z,97301.81
2022-09-24T18:23:41.248Z,97301.22
2022-09-24T18:27:46.548Z,97303.06
2022-09-24T18:31:52.242Z,97296.19
2022-09-24T18:35:56.822Z,97293.97
2022-09-24T18:40:00.285Z,97305.09
2022-09-24T18:44:04.611Z,97291.97
2022-09-24T18:48:07.842Z,97295.78
2022-09-24T18:52:14.675Z,97297.81
2022-09-24T18:56:18.109Z,97291.13
2022-09-24T19:00:39.565Z,97290.09
2022-09-24T19:04:43.099Z,97293.53
2022-09-24T19:08:48.037Z,97296.38
2022-09-24T19:12:54.002Z,97292.34
2022-09-24T19:16:57.991Z,97284.66
2022-09-24T19:21:01.222Z,97286.66
2022-09-24T19:25:06.557Z,97280.00
2022-09-24T19:29:09.787Z,97288.50
2022-09-24T19:33:16.624Z,97282.63
2022-09-24T19:37:20.106Z,97288.69
2022-09-24T19:41:26.803Z,97301.03
2022-09-24T19:45:31.976Z,97305.66
2022-09-24T19:49:35.935Z,97298.78
2022-09-24T19:53:39.371Z,97303.44
2022-09-24T19:57:44.849Z,97300.22
2022-09-24T20:01:48.487Z,97313.75
2022-09-24T20:05:52.635Z,97311.72
2022-09-24T20:09:56.228Z,97310.50
2022-09-24T20:14:02.027Z,97311.31
2022-09-24T20:18:05.720Z,97312.53
2022-09-24T20:22:10.992Z,97306.84
2022-09-24T20:26:35.595Z,97319.41
2022-09-24T20:30:40.974Z,97310.06
2022-09-24T20:34:44.532Z,97311.28
2022-09-24T20:38:48.752Z,97317.75
2022-09-24T20:42:52.276Z,97318.16
2022-09-24T20:46:57.783Z,97312.28
2022-09-24T20:51:01.029Z,97315.34
2022-09-24T20:55:05.093Z,97309.03
2022-09-24T20:59:08.884Z,97315.88
2022-09-24T21:03:39.290Z,97315.09
2022-09-24T21:07:40.153Z,97318.31
2022-09-24T21:11:44.428Z,97318.28
2022-09-24T21:16:03.304Z,97323.53
2022-09-24T21:20:10.711Z,97315.22
2022-09-24T21:24:16.262Z,97319.19
2022-09-24T21:28:19.409Z,97327.66
2022-09-24T21:32:22.914Z,97328.44
2022-09-24T21:36:29.817Z,97319.91
2022-09-24T21:40:35.347Z,97330.03
2022-09-24T21:44:38.991Z,97326.00
2022-09-24T21:48:42.503Z,97326.19
2022-09-24T21:52:47.854Z,97313.63
2022-09-24T21:56:51.447Z,97318.50
2022-09-24T22:00:55.100Z,97320.69
2022-09-24T22:04:58.586Z,97314.63
2022-09-24T22:09:05.944Z,97319.09
2022-09-24T22:13:10.240Z,97314.22
2022-09-24T22:17:14.128Z,97321.47
2022-09-24T22:21:17.141Z,97313.00
2022-09-24T22:25:23.067Z,97319.84
2022-09-24T22:29:26.507Z,97319.84
2022-09-24T22:33:48.144Z,97306.75
2022-09-24T22:37:51.928Z,97306.94
2022-09-24T22:41:56.850Z,97309.19
2022-09-24T22:46:00.045Z,97313.44
2022-09-24T22:50:03.632Z,97306.38
2022-09-24T22:54:07.396Z,97309.00
2022-09-24T22:58:12.322Z,97308.41
2022-09-24T23:02:15.883Z,97306.75
2022-09-24T23:06:19.444Z,97308.59
2022-09-24T23:10:22.862Z,97302.72
2022-09-24T23:14:27.817Z,97302.13
2022-09-24T23:18:30.809Z,97304.50
2022-09-24T23:22:34.423Z,97296.81
2022-09-24T23:26:38.048Z,97293.56
2022-09-24T23:30:43.070Z,97296.41
2022-09-24T23:34:47.132Z,97301.41
2022-09-24T23:38:50.696Z,97306.03
2022-09-24T23:42:54.307Z,97316.94
2022-09-24T23:46:58.980Z,97313.69
2022-09-24T23:51:02.563Z,97310.63
2022-09-24T23:55:06.429Z,97302.94
2022-09-24T23:59:09.967Z,97297.72
